createdAt,value
2019-03-20T00:00:16.997Z,5.40
2019-03-20T00:02:44.243Z,5.90
2019-03-20T00:05:11.451Z,5.43
2019-03-20T00:07:38.749Z,5.43
2019-03-20T00:10:07.175Z,5.53
2019-03-20T00:12:34.790Z,5.80
2019-03-20T00:15:02.362Z,5.30
2019-03-20T00:17:29.902Z,5.67
2019-03-20T00:19:57.155Z,6.20
2019-03-20T00:22:24.704Z,5.87
2019-03-20T00:24:52.285Z,5.40
2019-03-20T00:27:19.826Z,6.27
2019-03-20T00:29:47.061Z,6.37
2019-03-20T00:32:14.312Z,6.40
2019-03-20T00:34:41.552Z,5.47
2019-03-20T00:37:09.039Z,5.97
2019-03-20T00:39:36.251Z,5.70
2019-03-20T00:42:03.743Z,6.30
2019-03-20T00:44:30.951Z,6.13
2019-03-20T00:46:58.191Z,5.90
2019-03-20T00:49:25.402Z,6.13
2019-03-20T00:51:52.647Z,5.87
2019-03-20T00:54:19.886Z,6.20
2019-03-20T00:56:47.113Z,5.77
2019-03-20T00:59:14.344Z,6.20
2019-03-20T01:01:41.853Z,5.60
2019-03-20T01:04:09.092Z,5.87
2019-03-20T01:06:36.300Z,6.20
2019-03-20T01:09:04.811Z,6.30
2019-03-20T01:11:32.392Z,6.37
2019-03-20T01:13:59.612Z,5.77
2019-03-20T01:16:26.875Z,5.57
2019-03-20T01:18:54.079Z,5.93
2019-03-20T01:21:21.321Z,5.47
2019-03-20T01:23:48.542Z,6.10
2019-03-20T01:26:15.797Z,5.43
2019-03-20T01:28:43.024Z,6.57
2019-03-20T01:31:10.713Z,6.57
2019-03-20T01:33:38.271Z,5.50
2019-03-20T01:36:05.508Z,5.60
2019-03-20T01:38:32.728Z,5.67
2019-03-20T01:41:00.003Z,6.47
2019-03-20T01:43:27.462Z,6.60
2019-03-20T01:45:54.675Z,6.20
2019-03-20T01:48:21.930Z,5.53
2019-03-20T01:50:49.176Z,5.53
2019-03-20T01:53:16.700Z,5.53
2019-03-20T01:55:44.247Z,6.10
2019-03-20T01:58:11.462Z,5.43
2019-03-20T02:00:38.699Z,6.77
2019-03-20T02:03:05.988Z,6.70
2019-03-20T02:05:36.230Z,5.57
2019-03-20T02:08:02.428Z,6.23
2019-03-20T02:10:29.638Z,5.57
2019-03-20T02:12:58.727Z,6.13
2019-03-20T02:15:37.678Z,6.30
2019-03-20T02:17:55.419Z,5.30
2019-03-20T02:20:22.693Z,6.07
2019-03-20T02:22:49.911Z,5.67
2019-03-20T02:25:17.159Z,6.00
2019-03-20T02:27:44.367Z,5.70
2019-03-20T02:30:13.368Z,6.07
2019-03-20T02:32:40.603Z,6.33
2019-03-20T02:35:08.155Z,6.17
2019-03-20T02:37:35.442Z,6.33
2019-03-20T02:40:03.147Z,6.23
2019-03-20T02:42:30.363Z,6.33
2019-03-20T02:44:57.886Z,6.50
2019-03-20T02:47:25.435Z,6.30
2019-03-20T02:49:53.005Z,6.73
2019-03-20T02:52:20.218Z,7.40
2019-03-20T02:54:47.447Z,6.60
2019-03-20T02:57:17.348Z,6.63
2019-03-20T02:59:44.260Z,6.80
2019-03-20T03:02:11.515Z,6.73
2019-03-20T03:04:38.730Z,7.90
2019-03-20T03:07:05.954Z,6.60
2019-03-20T03:09:33.191Z,6.60
2019-03-20T03:12:00.441Z,6.73
2019-03-20T03:14:27.978Z,6.53
2019-03-20T03:16:55.534Z,6.90
2019-03-20T03:19:22.732Z,6.97
2019-03-20T03:21:49.976Z,6.93
2019-03-20T03:24:17.194Z,6.43
2019-03-20T03:26:44.395Z,6.60
2019-03-20T03:29:11.719Z,6.30
2019-03-20T03:31:39.003Z,6.80
2019-03-20T03:34:06.210Z,6.37
2019-03-20T03:36:33.423Z,6.73
2019-03-20T03:39:01.004Z,6.47
2019-03-20T03:41:28.454Z,5.97
2019-03-20T03:43:55.717Z,7.00
2019-03-20T03:46:22.923Z,6.50
2019-03-20T03:48:50.148Z,6.47
2019-03-20T03:51:17.386Z,5.73
2019-03-20T03:53:44.610Z,6.93
2019-03-20T03:56:11.830Z,6.23
2019-03-20T03:58:39.073Z,6.83
2019-03-20T04:01:06.284Z,7.30
2019-03-20T04:03:33.818Z,6.63
2019-03-20T04:06:01.387Z,6.63
2019-03-20T04:08:28.947Z,7.23
2019-03-20T04:10:56.235Z,7.57
2019-03-20T04:13:23.481Z,7.03
2019-03-20T04:15:50.699Z,6.97
2019-03-20T04:18:17.926Z,7.07
2019-03-20T04:20:45.140Z,6.73
2019-03-20T04:23:12.371Z,6.50
2019-03-20T04:25:39.902Z,7.67
2019-03-20T04:28:07.218Z,7.00
2019-03-20T04:30:34.708Z,6.20
2019-03-20T04:33:01.925Z,7.47
2019-03-20T04:35:29.164Z,6.80
2019-03-20T04:37:56.672Z,6.60
2019-03-20T04:40:23.893Z,6.87
2019-03-20T04:42:51.098Z,6.10
2019-03-20T04:45:18.338Z,6.57
2019-03-20T04:47:45.566Z,5.87
2019-03-20T04:50:16.346Z,6.00
2019-03-20T04:52:43.584Z,6.87
2019-03-20T04:55:11.201Z,7.03
2019-03-20T04:57:38.667Z,7.90
2019-03-20T05:00:07.974Z,7.30
2019-03-20T05:02:35.530Z,6.50
2019-03-20T05:05:02.750Z,6.70
2019-03-20T05:07:30.236Z,6.10
2019-03-20T05:09:57.451Z,6.47
2019-03-20T05:12:24.934Z,6.10
2019-03-20T05:14:52.167Z,6.43
2019-03-20T05:17:19.376Z,6.07
2019-03-20T05:19:46.614Z,6.27
2019-03-20T05:22:14.158Z,5.60
2019-03-20T05:24:41.404Z,6.87
2019-03-20T05:27:08.615Z,7.00
2019-03-20T05:29:36.219Z,6.57
2019-03-20T05:32:03.447Z,6.80
2019-03-20T05:34:31.631Z,6.07
2019-03-20T05:37:09.600Z,6.03
2019-03-20T05:39:28.087Z,6.60
2019-03-20T05:41:55.318Z,6.07
2019-03-20T05:44:22.533Z,6.03
2019-03-20T05:46:50.050Z,6.37
2019-03-20T05:49:17.611Z,6.60
2019-03-20T05:51:44.875Z,6.30
2019-03-20T05:54:12.074Z,6.27
2019-03-20T05:56:39.310Z,6.17
2019-03-20T05:59:06.543Z,6.40
2019-03-20T06:01:34.074Z,5.93
2019-03-20T06:04:01.646Z,6.17
2019-03-20T06:06:28.851Z,6.30
2019-03-20T06:08:56.352Z,6.47
2019-03-20T06:11:23.571Z,6.47
2019-03-20T06:13:51.157Z,6.70
2019-03-20T06:16:18.347Z,6.33
2019-03-20T06:18:45.607Z,6.53
2019-03-20T06:21:12.842Z,6.50
2019-03-20T06:23:40.354Z,6.70
2019-03-20T06:26:07.596Z,6.27
2019-03-20T06:28:34.865Z,6.47
2019-03-20T06:31:02.726Z,6.23
2019-03-20T06:33:30.283Z,6.53
2019-03-20T06:35:57.518Z,6.57
2019-03-20T06:38:24.984Z,6.00
2019-03-20T06:40:52.554Z,6.30
2019-03-20T06:43:19.798Z,5.83
2019-03-20T06:45:47.032Z,6.43
2019-03-20T06:48:14.292Z,6.33
2019-03-20T06:50:41.519Z,6.00
2019-03-20T06:53:09.118Z,6.47
2019-03-20T06:55:36.354Z,5.77
2019-03-20T06:58:03.691Z,5.80
2019-03-20T07:00:38.757Z,5.90
2019-03-20T07:03:10.630Z,5.67
2019-03-20T07:05:56.308Z,6.00
2019-03-20T07:08:25.384Z,5.50
2019-03-20T07:11:03.192Z,5.40
2019-03-20T07:13:30.399Z,5.40
2019-03-20T07:15:57.628Z,5.63
2019-03-20T07:18:24.859Z,5.30
2019-03-20T07:20:52.094Z,5.27
2019-03-20T07:23:19.310Z,6.03
2019-03-20T07:25:46.534Z,5.50
2019-03-20T07:28:14.072Z,5.60
2019-03-20T07:30:41.313Z,5.60
2019-03-20T07:33:08.622Z,5.90
2019-03-20T07:35:36.212Z,5.67
2019-03-20T07:38:03.550Z,5.67
2019-03-20T07:40:30.774Z,5.53
2019-03-20T07:43:08.196Z,6.07
2019-03-20T07:45:26.979Z,5.77
2019-03-20T07:47:54.204Z,5.40
2019-03-20T07:50:21.768Z,5.60
2019-03-20T07:52:49.013Z,5.63
2019-03-20T07:55:16.595Z,5.60
2019-03-20T07:57:44.135Z,5.93
2019-03-20T08:00:12.735Z,5.80
2019-03-20T08:02:40.002Z,5.27
2019-03-20T08:05:08.555Z,5.57
2019-03-20T08:07:36.115Z,5.93
2019-03-20T08:10:04.668Z,5.50
2019-03-20T08:12:31.930Z,5.67
2019-03-20T08:14:59.159Z,5.17
2019-03-20T08:17:26.406Z,5.83
2019-03-20T08:19:54.008Z,5.67
2019-03-20T08:22:21.282Z,6.03
2019-03-20T08:24:48.529Z,5.67
2019-03-20T08:27:15.867Z,5.77
2019-03-20T08:29:43.146Z,5.27
2019-03-20T08:32:10.366Z,5.50
2019-03-20T08:34:37.590Z,5.60
2019-03-20T08:37:04.825Z,4.80
2019-03-20T08:39:32.062Z,5.93
2019-03-20T08:41:59.306Z,5.03
2019-03-20T08:44:26.551Z,4.97
2019-03-20T08:46:54.082Z,5.47
2019-03-20T08:49:21.342Z,5.60
2019-03-20T08:51:48.561Z,5.40
2019-03-20T08:54:16.148Z,5.13
2019-03-20T08:56:43.379Z,5.80
2019-03-20T08:59:10.644Z,5.50
2019-03-20T09:01:37.875Z,5.50
2019-03-20T09:04:05.211Z,5.57
2019-03-20T09:06:32.439Z,5.20
2019-03-20T09:08:59.649Z,5.40
2019-03-20T09:11:27.203Z,5.33
2019-03-20T09:13:54.766Z,5.33
2019-03-20T09:16:22.012Z,5.27
2019-03-20T09:18:49.569Z,5.20
2019-03-20T09:21:16.814Z,5.50
2019-03-20T09:23:44.059Z,4.73
2019-03-20T09:26:11.288Z,5.30
2019-03-20T09:28:39.929Z,4.93
2019-03-20T09:31:07.144Z,5.13
2019-03-20T09:33:34.718Z,4.83
2019-03-20T09:36:01.952Z,4.63
2019-03-20T09:38:29.154Z,4.20
2019-03-20T09:40:56.675Z,4.53
2019-03-20T09:43:23.926Z,4.47
2019-03-20T09:45:51.150Z,4.33
2019-03-20T09:48:18.355Z,4.23
2019-03-20T09:50:45.888Z,4.27
2019-03-20T09:53:13.101Z,3.50
2019-03-20T09:55:40.312Z,3.40
2019-03-20T09:58:11.537Z,3.47
2019-03-20T10:00:36.504Z,3.67
2019-03-20T10:03:03.894Z,3.60
2019-03-20T10:05:31.105Z,4.07
2019-03-20T10:07:58.707Z,3.37
2019-03-20T10:10:27.470Z,3.63
2019-03-20T10:12:55.039Z,3.30
2019-03-20T10:15:23.244Z,3.70
2019-03-20T10:17:50.479Z,3.67
2019-03-20T10:20:18.802Z,3.40
2019-03-20T10:22:46.394Z,3.60
2019-03-20T10:25:14.591Z,3.30
2019-03-20T10:27:41.830Z,2.90
2019-03-20T10:30:16.285Z,3.30
2019-03-20T10:32:43.515Z,3.10
2019-03-20T10:35:10.819Z,3.30
2019-03-20T10:37:38.039Z,3.30
2019-03-20T10:40:06.829Z,2.97
2019-03-20T10:42:34.044Z,2.70
2019-03-20T10:45:01.272Z,3.20
2019-03-20T10:47:28.749Z,2.90
2019-03-20T10:49:56.003Z,4.10
2019-03-20T10:52:23.246Z,3.40
2019-03-20T10:54:50.914Z,3.17
2019-03-20T10:57:18.127Z,3.10
2019-03-20T10:59:45.416Z,2.80
2019-03-20T11:02:12.678Z,3.80
2019-03-20T11:04:40.250Z,3.23
2019-03-20T11:07:07.783Z,3.57
2019-03-20T11:09:35.358Z,3.43
2019-03-20T11:12:02.595Z,3.37
2019-03-20T11:14:29.847Z,3.60
2019-03-20T11:16:57.078Z,3.10
2019-03-20T11:19:24.377Z,3.07
2019-03-20T11:21:51.898Z,3.23
2019-03-20T11:24:19.113Z,3.17
2019-03-20T11:26:46.725Z,3.20
2019-03-20T11:29:13.922Z,3.60
2019-03-20T11:31:41.156Z,3.13
2019-03-20T11:34:08.672Z,2.77
2019-03-20T11:36:35.931Z,3.23
2019-03-20T11:39:05.019Z,3.90
2019-03-20T11:41:32.574Z,3.30
2019-03-20T11:43:59.809Z,3.20
2019-03-20T11:46:27.111Z,2.97
2019-03-20T11:48:54.323Z,2.83
2019-03-20T11:51:21.554Z,2.90
2019-03-20T11:53:48.818Z,3.07
2019-03-20T11:56:16.114Z,3.10
2019-03-20T11:58:43.651Z,3.13
2019-03-20T12:01:11.199Z,3.37
2019-03-20T12:03:38.410Z,3.03
2019-03-20T12:06:05.639Z,3.03
2019-03-20T12:08:32.987Z,2.97
2019-03-20T12:11:00.512Z,2.70
2019-03-20T12:13:28.200Z,4.10
2019-03-20T12:15:55.727Z,4.80
2019-03-20T12:18:23.185Z,3.40
2019-03-20T12:20:50.423Z,3.03
2019-03-20T12:23:17.627Z,3.33
2019-03-20T12:25:44.894Z,2.70
2019-03-20T12:28:12.139Z,2.60
2019-03-20T12:30:39.858Z,2.83
2019-03-20T12:33:07.420Z,4.03
2019-03-20T12:35:37.998Z,2.47
2019-03-20T12:38:14.281Z,2.70
2019-03-20T12:40:34.524Z,2.93
2019-03-20T12:43:01.752Z,2.37
2019-03-20T12:45:33.290Z,2.20
2019-03-20T12:48:00.570Z,2.47
2019-03-20T12:50:27.844Z,2.20
2019-03-20T12:52:55.091Z,2.30
2019-03-20T12:55:22.334Z,2.23
2019-03-20T12:57:49.581Z,2.40
2019-03-20T13:00:17.901Z,2.40
2019-03-20T13:02:45.153Z,2.50
2019-03-20T13:05:13.833Z,2.80
2019-03-20T13:07:41.424Z,3.37
2019-03-20T13:10:21.494Z,3.03
2019-03-20T13:12:49.032Z,2.80
2019-03-20T13:15:23.478Z,3.13
2019-03-20T13:17:51.627Z,3.30
2019-03-20T13:20:19.194Z,3.10
2019-03-20T13:22:48.003Z,3.10
2019-03-20T13:25:15.627Z,3.50
2019-03-20T13:27:42.861Z,3.83
2019-03-20T13:30:19.828Z,3.30
2019-03-20T13:32:40.895Z,3.13
2019-03-20T13:35:08.862Z,3.37
2019-03-20T13:37:36.398Z,3.30
2019-03-20T13:40:13.889Z,2.90
2019-03-20T13:42:33.690Z,2.57
2019-03-20T13:45:01.224Z,2.40
2019-03-20T13:47:28.807Z,2.40
2019-03-20T13:49:56.046Z,2.13
2019-03-20T13:52:23.248Z,1.90
2019-03-20T13:54:50.459Z,2.13
2019-03-20T13:57:17.994Z,2.30
2019-03-20T13:59:45.242Z,2.10
2019-03-20T14:02:12.493Z,2.20
2019-03-20T14:04:39.733Z,2.03
2019-03-20T14:07:06.938Z,1.93
2019-03-20T14:09:34.446Z,1.83
2019-03-20T14:12:02.007Z,2.33
2019-03-20T14:14:29.564Z,1.70
2019-03-20T14:16:56.774Z,1.93
2019-03-20T14:19:23.986Z,2.10
2019-03-20T14:21:51.223Z,2.00
2019-03-20T14:24:18.472Z,1.80
2019-03-20T14:26:45.735Z,2.00
2019-03-20T14:29:12.997Z,2.10
2019-03-20T14:31:40.539Z,1.90
2019-03-20T14:34:07.778Z,2.10
2019-03-20T14:36:35.252Z,1.87
2019-03-20T14:39:02.505Z,1.90
2019-03-20T14:41:29.710Z,2.20
2019-03-20T14:43:56.953Z,1.80
2019-03-20T14:46:24.186Z,2.30
2019-03-20T14:48:51.387Z,2.00
2019-03-20T14:51:18.617Z,2.00
2019-03-20T14:53:45.871Z,2.07
2019-03-20T14:56:13.065Z,2.40
2019-03-20T14:58:40.606Z,2.20
2019-03-20T15:01:07.819Z,2.17
2019-03-20T15:03:35.310Z,2.63
2019-03-20T15:06:02.871Z,2.43
2019-03-20T15:08:30.431Z,2.90
2019-03-20T15:10:57.638Z,2.83
2019-03-20T15:13:24.901Z,2.83
2019-03-20T15:15:53.677Z,2.97
2019-03-20T15:18:20.890Z,3.00
2019-03-20T15:20:48.434Z,2.90
2019-03-20T15:23:15.635Z,2.80
2019-03-20T15:25:42.976Z,2.60
2019-03-20T15:28:10.495Z,2.40
2019-03-20T15:30:37.711Z,2.93
2019-03-20T15:33:04.986Z,2.87
2019-03-20T15:35:32.205Z,3.40
2019-03-20T15:37:59.463Z,3.10
2019-03-20T15:40:27.543Z,3.33
2019-03-20T15:42:54.769Z,3.23
2019-03-20T15:45:22.270Z,3.47
2019-03-20T15:47:49.834Z,3.03
2019-03-20T15:50:17.614Z,3.80
2019-03-20T15:52:44.873Z,2.97
2019-03-20T15:55:13.246Z,3.07
2019-03-20T15:57:40.471Z,3.07
2019-03-20T16:00:09.314Z,2.97
2019-03-20T16:02:36.820Z,3.00
2019-03-20T16:05:05.519Z,3.40
2019-03-20T16:07:33.064Z,2.93
2019-03-20T16:10:00.301Z,3.10
2019-03-20T16:12:27.874Z,3.00
2019-03-20T16:14:55.108Z,2.90
2019-03-20T16:17:22.697Z,2.97
2019-03-20T16:19:50.255Z,2.80
2019-03-20T16:22:17.498Z,3.03
2019-03-20T16:24:44.706Z,2.70
2019-03-20T16:27:12.204Z,2.87
2019-03-20T16:29:39.451Z,2.43
2019-03-20T16:32:06.678Z,2.60
2019-03-20T16:34:33.934Z,2.93
2019-03-20T16:37:01.142Z,2.47
2019-03-20T16:39:28.392Z,2.97
2019-03-20T16:41:55.599Z,2.60
2019-03-20T16:44:22.851Z,2.10
2019-03-20T16:46:50.054Z,2.30
2019-03-20T16:49:17.313Z,2.30
2019-03-20T16:51:44.551Z,2.30
2019-03-20T16:54:11.794Z,2.20
2019-03-20T16:56:39.039Z,2.10
2019-03-20T16:59:06.252Z,2.30
2019-03-20T17:01:33.496Z,2.30
2019-03-20T17:04:01.310Z,2.10
2019-03-20T17:06:28.550Z,2.10
2019-03-20T17:08:55.766Z,2.10
2019-03-20T17:11:30.459Z,2.30
2019-03-20T17:13:51.987Z,2.10
2019-03-20T17:16:19.205Z,2.13
2019-03-20T17:18:46.419Z,2.40
2019-03-20T17:21:13.694Z,2.70
2019-03-20T17:23:40.923Z,2.30
2019-03-20T17:26:08.225Z,1.90
2019-03-20T17:28:35.456Z,2.53
2019-03-20T17:31:02.662Z,2.50
2019-03-20T17:33:29.912Z,2.67
2019-03-20T17:35:57.155Z,2.20
2019-03-20T17:38:24.654Z,3.33
2019-03-20T17:40:58.050Z,2.20
2019-03-20T17:43:25.272Z,2.73
2019-03-20T17:45:52.768Z,2.40
2019-03-20T17:48:19.998Z,2.40
2019-03-20T17:50:47.259Z,2.80
2019-03-20T17:53:14.476Z,2.70
2019-03-20T17:55:42.068Z,2.60
2019-03-20T17:58:09.310Z,3.00
2019-03-20T18:00:41.130Z,2.77
2019-03-20T18:03:08.453Z,2.83
2019-03-20T18:05:36.201Z,2.90
2019-03-20T18:08:06.023Z,3.40
2019-03-20T18:10:33.390Z,2.83
2019-03-20T18:13:02.260Z,2.83
2019-03-20T18:15:31.408Z,3.10
2019-03-20T18:17:58.628Z,2.90
2019-03-20T18:20:25.883Z,4.43
2019-03-20T18:22:53.090Z,3.80
2019-03-20T18:25:20.343Z,3.83
2019-03-20T18:27:48.490Z,3.23
2019-03-20T18:30:19.978Z,3.57
2019-03-20T18:32:47.524Z,3.57
2019-03-20T18:35:15.022Z,3.57
2019-03-20T18:37:42.299Z,3.57
2019-03-20T18:40:11.047Z,3.57
2019-03-20T18:42:38.265Z,3.27
2019-03-20T18:45:15.366Z,3.37
2019-03-20T18:47:43.016Z,3.60
2019-03-20T18:50:11.687Z,4.00
2019-03-20T18:52:38.940Z,3.97
2019-03-20T18:55:07.957Z,4.20
2019-03-20T18:57:35.202Z,3.83
2019-03-20T19:00:02.997Z,4.57
2019-03-20T19:02:31.198Z,4.60
2019-03-20T19:04:58.451Z,5.07
2019-03-20T19:07:25.937Z,6.00
2019-03-20T19:09:53.251Z,5.77
2019-03-20T19:12:20.847Z,5.23
2019-03-20T19:14:48.091Z,4.50
2019-03-20T19:17:15.650Z,4.30
2019-03-20T19:19:42.904Z,4.67
2019-03-20T19:22:10.107Z,4.97
2019-03-20T19:24:37.614Z,4.83
2019-03-20T19:27:05.170Z,4.90
2019-03-20T19:29:32.412Z,4.20
2019-03-20T19:31:59.624Z,4.73
2019-03-20T19:34:26.930Z,4.90
2019-03-20T19:36:54.157Z,5.10
2019-03-20T19:39:21.383Z,5.33
2019-03-20T19:41:48.883Z,5.00
2019-03-20T19:44:16.111Z,4.67
2019-03-20T19:46:43.359Z,5.03
2019-03-20T19:49:10.931Z,4.80
2019-03-20T19:51:38.169Z,4.73
2019-03-20T19:54:05.382Z,5.03
2019-03-20T19:56:32.601Z,5.40
2019-03-20T19:58:59.885Z,5.13
2019-03-20T20:01:27.111Z,4.70
2019-03-20T20:03:54.350Z,4.83
2019-03-20T20:06:21.602Z,4.80
2019-03-20T20:08:49.155Z,5.30
2019-03-20T20:11:16.395Z,5.23
2019-03-20T20:13:43.873Z,5.37
2019-03-20T20:16:11.097Z,4.70
2019-03-20T20:18:38.318Z,5.27
2019-03-20T20:21:05.590Z,4.70
2019-03-20T20:23:33.084Z,5.17
2019-03-20T20:26:00.362Z,4.80
2019-03-20T20:28:27.591Z,5.23
2019-03-20T20:30:57.724Z,5.20
2019-03-20T20:33:25.255Z,5.80
2019-03-20T20:35:52.850Z,4.97
2019-03-20T20:38:20.131Z,5.13
2019-03-20T20:40:47.625Z,4.90
2019-03-20T20:43:14.861Z,5.17
2019-03-20T20:45:42.116Z,5.30
2019-03-20T20:48:09.383Z,4.83
2019-03-20T20:50:36.634Z,5.23
2019-03-20T20:53:03.867Z,5.13
2019-03-20T20:55:31.099Z,5.10
2019-03-20T20:57:58.310Z,5.13
2019-03-20T21:00:26.193Z,4.93
2019-03-20T21:02:53.430Z,5.30
2019-03-20T21:05:20.691Z,4.57
2019-03-20T21:07:48.222Z,5.23
2019-03-20T21:10:17.317Z,5.13
2019-03-20T21:12:55.487Z,4.73
2019-03-20T21:15:17.768Z,4.93
2019-03-20T21:17:46.540Z,4.53
2019-03-20T21:20:13.739Z,4.80
2019-03-20T21:22:42.538Z,4.93
2019-03-20T21:25:09.738Z,5.03
2019-03-20T21:27:55.625Z,4.53
2019-03-20T21:30:33.581Z,4.63
2019-03-20T21:33:14.170Z,4.80
2019-03-20T21:35:59.764Z,5.30
2019-03-20T21:38:26.525Z,4.97
2019-03-20T21:41:04.032Z,6.90
2019-03-20T21:43:35.716Z,6.47
2019-03-20T21:46:08.626Z,5.90
2019-03-20T21:48:35.858Z,6.40
2019-03-20T21:51:11.332Z,6.43
2019-03-20T21:53:55.170Z,6.00
2019-03-20T21:56:26.631Z,6.13
2019-03-20T21:59:07.768Z,6.30
2019-03-20T22:01:52.142Z,6.00
2019-03-20T22:04:19.781Z,6.43
2019-03-20T22:07:01.804Z,6.10
2019-03-20T22:09:30.601Z,6.13
2019-03-20T22:12:11.745Z,6.10
2019-03-20T22:14:39.051Z,5.80
2019-03-20T22:17:10.720Z,6.47
2019-03-20T22:19:39.771Z,6.47
2019-03-20T22:22:23.571Z,6.80
2019-03-20T22:24:58.322Z,7.00
2019-03-20T22:27:32.994Z,6.00
2019-03-20T22:30:00.353Z,6.60
2019-03-20T22:32:29.507Z,6.70
2019-03-20T22:34:58.265Z,6.50
2019-03-20T22:37:25.854Z,6.83
2019-03-20T22:40:12.737Z,6.43
2019-03-20T22:42:57.944Z,7.37
2019-03-20T22:45:41.693Z,7.00
2019-03-20T22:48:26.763Z,6.67
2019-03-20T22:50:55.838Z,6.50
2019-03-20T22:53:30.421Z,6.70
2019-03-20T22:56:14.506Z,7.10
2019-03-20T22:58:41.650Z,6.97
2019-03-20T23:01:09.728Z,7.07
2019-03-20T23:03:41.319Z,7.20
2019-03-20T23:06:08.835Z,7.50
2019-03-20T23:08:36.076Z,7.17
2019-03-20T23:11:03.287Z,7.90
2019-03-20T23:13:40.775Z,7.43
2019-03-20T23:15:59.445Z,7.40
2019-03-20T23:18:26.940Z,6.83
2019-03-20T23:20:54.142Z,7.07
2019-03-20T23:23:21.350Z,6.90
2019-03-20T23:25:48.586Z,6.40
2019-03-20T23:28:16.045Z,7.33
2019-03-20T23:30:43.599Z,6.50
2019-03-20T23:33:10.813Z,6.80
2019-03-20T23:35:38.042Z,6.73
2019-03-20T23:38:05.292Z,6.43
2019-03-20T23:40:32.811Z,6.97
2019-03-20T23:43:01.793Z,6.90
2019-03-20T23:45:29.367Z,7.00
2019-03-20T23:47:58.662Z,7.03
2019-03-20T23:50:25.983Z,7.10
2019-03-20T23:52:53.186Z,6.83
2019-03-20T23:55:20.414Z,7.07
2019-03-20T23:57:47.870Z,6.70
